createdAt,value
2019-03-01T00:00:14.573Z,2.05
2019-03-01T00:02:43.975Z,0.90
2019-03-01T00:06:01.927Z,1.50
2019-03-01T00:08:56.819Z,0.90
2019-03-01T00:11:35.542Z,2.47
2019-03-01T00:14:52.911Z,2.52
2019-03-01T00:18:09.287Z,1.32
2019-03-01T00:21:07.943Z,3.52
2019-03-01T00:24:10.707Z,1.65
2019-03-01T00:27:20.066Z,2.30
2019-03-01T00:30:29.155Z,0.70
2019-03-01T00:33:57.695Z,0.75
2019-03-01T00:36:53.239Z,1.50
2019-03-01T00:39:53.654Z,1.30
2019-03-01T00:42:51.427Z,0.93
2019-03-01T00:45:20.791Z,0.40
2019-03-01T00:47:50.498Z,3.35
2019-03-01T00:50:19.982Z,1.05
2019-03-01T00:52:49.078Z,4.22
2019-03-01T00:55:18.480Z,2.90
2019-03-01T00:57:47.842Z,0.40
2019-03-01T01:00:25.983Z,0.60
2019-03-01T01:02:55.423Z,0.85
2019-03-01T01:05:25.096Z,3.00
2019-03-01T01:07:54.195Z,3.27
2019-03-01T01:10:23.859Z,1.77
2019-03-01T01:12:53.247Z,18.77
2019-03-01T01:15:22.912Z,1.25
2019-03-01T01:17:52.007Z,1.87
2019-03-01T01:20:21.711Z,0.70
2019-03-01T01:22:51.071Z,1.02
2019-03-01T01:25:20.467Z,1.20
2019-03-01T01:27:50.104Z,2.12
2019-03-01T01:30:19.533Z,0.93
2019-03-01T01:32:49.527Z,2.35
2019-03-01T01:35:18.835Z,3.22
2019-03-01T01:37:47.974Z,2.92
2019-03-01T01:40:17.347Z,1.17
2019-03-01T01:42:46.547Z,0.50
2019-03-01T01:45:16.174Z,0.85
2019-03-01T01:47:45.576Z,3.25
2019-03-01T01:50:15.055Z,0.80
2019-03-01T01:52:45.046Z,0.60
2019-03-01T01:55:14.683Z,5.17
2019-03-01T01:57:44.137Z,0.90
2019-03-01T02:00:13.855Z,3.52
2019-03-01T02:02:43.345Z,1.05
2019-03-01T02:05:12.710Z,1.65
2019-03-01T02:07:41.994Z,2.58
2019-03-01T02:10:11.467Z,2.08
2019-03-01T02:12:40.955Z,1.20
2019-03-01T02:15:12.581Z,0.72
2019-03-01T02:17:41.902Z,0.50
2019-03-01T02:20:11.129Z,0.60
2019-03-01T02:22:40.782Z,0.75
2019-03-01T02:25:10.931Z,0.80
2019-03-01T02:27:40.326Z,0.60
2019-03-01T02:30:13.059Z,0.40
2019-03-01T02:32:49.442Z,1.05
2019-03-01T02:35:28.792Z,2.87
2019-03-01T02:37:57.998Z,1.50
2019-03-01T02:40:27.584Z,0.82
2019-03-01T02:42:56.995Z,3.50
2019-03-01T02:45:26.360Z,2.67
2019-03-01T02:48:01.581Z,0.40
2019-03-01T02:50:31.115Z,2.25
2019-03-01T02:53:01.345Z,4.53
2019-03-01T02:55:30.555Z,0.78
2019-03-01T02:57:59.977Z,0.95
2019-03-01T03:00:29.639Z,0.65
2019-03-01T03:02:59.386Z,1.50
2019-03-01T03:05:28.851Z,2.05
2019-03-01T03:08:00.191Z,0.60
2019-03-01T03:10:29.405Z,0.57
2019-03-01T03:13:00.959Z,0.93
2019-03-01T03:15:32.119Z,0.95
2019-03-01T03:18:01.547Z,1.25
2019-03-01T03:20:30.995Z,1.80
2019-03-01T03:23:00.461Z,0.80
2019-03-01T03:25:29.960Z,1.32
2019-03-01T03:27:59.193Z,0.60
2019-03-01T03:30:28.486Z,0.80
2019-03-01T03:32:58.231Z,0.95
2019-03-01T03:35:28.028Z,0.80
2019-03-01T03:37:57.420Z,1.25
2019-03-01T03:40:26.845Z,0.93
2019-03-01T03:42:56.247Z,1.02
2019-03-01T03:45:25.667Z,0.40
2019-03-01T03:47:55.329Z,1.60
2019-03-01T03:50:24.674Z,3.70
2019-03-01T03:52:54.070Z,0.60
2019-03-01T03:55:23.319Z,0.60
2019-03-01T03:57:52.776Z,1.75
2019-03-01T04:00:22.039Z,1.87
2019-03-01T04:02:51.223Z,0.40
2019-03-01T04:05:20.655Z,0.68
2019-03-01T04:07:49.791Z,0.50
2019-03-01T04:10:19.557Z,0.60
2019-03-01T04:12:49.056Z,0.40
2019-03-01T04:15:18.674Z,0.78
2019-03-01T04:17:47.880Z,0.80
2019-03-01T04:20:17.445Z,0.40
2019-03-01T04:22:46.665Z,0.30
2019-03-01T04:25:15.966Z,0.65
2019-03-01T04:27:45.091Z,0.50
2019-03-01T04:30:16.138Z,0.60
2019-03-01T04:32:45.878Z,0.93
2019-03-01T04:35:15.741Z,0.50
2019-03-01T04:37:44.936Z,0.45
2019-03-01T04:40:14.252Z,0.40
2019-03-01T04:42:43.904Z,0.57
2019-03-01T04:45:13.360Z,0.82
2019-03-01T04:47:42.827Z,0.40
2019-03-01T04:50:12.136Z,0.30
2019-03-01T04:52:41.500Z,0.40
2019-03-01T04:55:16.071Z,0.60
2019-03-01T04:57:45.543Z,0.50
2019-03-01T05:00:16.719Z,2.42
2019-03-01T05:02:45.919Z,3.62
2019-03-01T05:05:15.979Z,0.40
2019-03-01T05:07:45.171Z,0.40
2019-03-01T05:10:14.806Z,1.87
2019-03-01T05:12:44.572Z,0.50
2019-03-01T05:15:15.906Z,0.30
2019-03-01T05:17:45.340Z,1.98
2019-03-01T05:20:15.177Z,0.68
2019-03-01T05:22:44.413Z,0.90
2019-03-01T05:25:13.802Z,0.40
2019-03-01T05:27:42.969Z,0.55
2019-03-01T05:30:13.183Z,0.65
2019-03-01T05:32:42.350Z,0.80
2019-03-01T05:35:11.975Z,3.90
2019-03-01T05:37:41.135Z,1.05
2019-03-01T05:40:11.308Z,0.50
2019-03-01T05:42:40.548Z,1.07
2019-03-01T05:45:12.719Z,0.72
2019-03-01T05:47:41.891Z,1.30
2019-03-01T05:50:12.392Z,5.05
2019-03-01T05:52:41.902Z,0.90
2019-03-01T05:55:11.683Z,0.60
2019-03-01T05:58:17.572Z,0.88
2019-03-01T06:00:47.336Z,1.07
2019-03-01T06:03:49.487Z,0.70
2019-03-01T06:06:21.959Z,2.00
2019-03-01T06:09:27.304Z,1.00
2019-03-01T06:12:03.707Z,2.83
2019-03-01T06:14:51.900Z,1.42
2019-03-01T06:17:57.253Z,5.45
2019-03-01T06:20:47.868Z,5.22
2019-03-01T06:23:25.659Z,0.80
2019-03-01T06:26:31.332Z,1.12
2019-03-01T06:29:44.420Z,3.47
2019-03-01T06:33:12.706Z,1.90
2019-03-01T06:36:03.288Z,1.87
2019-03-01T06:39:35.007Z,4.80
2019-03-01T06:42:55.427Z,1.77
2019-03-01T06:45:48.027Z,0.50
2019-03-01T06:48:29.083Z,3.27
2019-03-01T06:51:04.771Z,0.47
2019-03-01T06:53:33.936Z,1.22
2019-03-01T06:56:06.809Z,1.47
2019-03-01T06:58:38.916Z,4.85
2019-03-01T07:01:14.198Z,1.35
2019-03-01T07:03:45.025Z,1.25
2019-03-01T07:06:14.230Z,1.25
2019-03-01T07:08:43.480Z,5.58
2019-03-01T07:11:12.608Z,1.12
2019-03-01T07:13:42.048Z,1.05
2019-03-01T07:16:11.434Z,0.98
2019-03-01T07:18:40.891Z,1.05
2019-03-01T07:21:10.295Z,0.55
2019-03-01T07:23:39.451Z,0.60
2019-03-01T07:26:09.127Z,3.50
2019-03-01T07:28:38.816Z,3.27
2019-03-01T07:31:07.955Z,1.30
2019-03-01T07:33:37.727Z,2.35
2019-03-01T07:36:06.855Z,0.65
2019-03-01T07:38:36.015Z,0.90
2019-03-01T07:41:05.763Z,0.82
2019-03-01T07:43:35.180Z,0.50
2019-03-01T07:46:04.391Z,0.80
2019-03-01T07:48:33.559Z,0.50
2019-03-01T07:51:02.763Z,3.08
2019-03-01T07:53:32.243Z,0.30
2019-03-01T07:56:04.175Z,0.33
2019-03-01T07:58:32.800Z,0.93
2019-03-01T08:01:02.281Z,0.50
2019-03-01T08:03:31.445Z,0.98
2019-03-01T08:06:00.976Z,0.50
2019-03-01T08:08:30.732Z,0.40
2019-03-01T08:11:00.208Z,0.57
2019-03-01T08:13:29.671Z,0.60
2019-03-01T08:15:58.863Z,0.40
2019-03-01T08:18:28.557Z,2.08
2019-03-01T08:20:58.036Z,0.40
2019-03-01T08:23:27.516Z,0.70
2019-03-01T08:25:58.776Z,0.40
2019-03-01T08:28:28.139Z,0.70
2019-03-01T08:30:57.568Z,0.40
2019-03-01T08:33:26.967Z,0.30
2019-03-01T08:35:56.404Z,2.67
2019-03-01T08:38:28.753Z,0.30
2019-03-01T08:40:56.409Z,0.40
2019-03-01T08:43:25.883Z,0.50
2019-03-01T08:45:55.111Z,0.30
2019-03-01T08:48:25.127Z,0.70
2019-03-01T08:50:54.644Z,2.90
2019-03-01T08:53:23.849Z,0.60
2019-03-01T08:55:53.273Z,0.40
2019-03-01T08:58:22.727Z,0.45
2019-03-01T09:00:59.226Z,1.12
2019-03-01T09:03:26.852Z,0.60
2019-03-01T09:05:56.355Z,0.60
2019-03-01T09:08:26.415Z,0.50
2019-03-01T09:10:56.124Z,1.50
2019-03-01T09:13:25.517Z,0.40
2019-03-01T09:15:55.019Z,0.82
2019-03-01T09:18:24.758Z,0.40
2019-03-01T09:20:53.926Z,1.17
2019-03-01T09:23:27.096Z,0.30
2019-03-01T09:25:54.871Z,4.10
2019-03-01T09:28:24.288Z,0.70
2019-03-01T09:30:53.519Z,0.50
2019-03-01T09:33:23.035Z,0.62
2019-03-01T09:36:00.186Z,0.30
2019-03-01T09:38:29.432Z,0.30
2019-03-01T09:41:01.199Z,0.93
2019-03-01T09:43:30.024Z,0.40
2019-03-01T09:45:59.180Z,1.20
2019-03-01T09:48:28.827Z,0.50
2019-03-01T09:50:58.003Z,0.40
2019-03-01T09:53:30.658Z,0.47
2019-03-01T09:56:00.123Z,0.62
2019-03-01T09:58:29.710Z,0.50
2019-03-01T10:01:03.248Z,0.40
2019-03-01T10:03:32.758Z,0.50
2019-03-01T10:06:02.476Z,0.85
2019-03-01T10:08:31.595Z,0.80
2019-03-01T10:11:00.779Z,0.50
2019-03-01T10:13:30.479Z,0.68
2019-03-01T10:15:59.995Z,0.37
2019-03-01T10:18:29.388Z,0.40
2019-03-01T10:20:58.552Z,0.50
2019-03-01T10:23:27.683Z,0.40
2019-03-01T10:25:57.222Z,0.30
2019-03-01T10:28:26.400Z,0.50
2019-03-01T10:30:55.566Z,0.50
2019-03-01T10:33:24.959Z,1.07
2019-03-01T10:35:54.651Z,0.45
2019-03-01T10:38:23.975Z,0.85
2019-03-01T10:40:53.224Z,0.30
2019-03-01T10:43:23.475Z,0.55
2019-03-01T10:45:52.723Z,0.30
2019-03-01T10:48:22.115Z,0.30
2019-03-01T10:50:51.278Z,0.50
2019-03-01T10:53:20.954Z,0.50
2019-03-01T10:55:50.459Z,0.42
2019-03-01T10:58:19.621Z,0.40
2019-03-01T11:00:49.051Z,0.45
2019-03-01T11:03:18.184Z,1.15
2019-03-01T11:05:47.896Z,0.55
2019-03-01T11:08:17.306Z,0.40
2019-03-01T11:10:47.994Z,0.40
2019-03-01T11:13:17.473Z,0.45
2019-03-01T11:15:47.224Z,0.40
2019-03-01T11:18:16.689Z,0.30
2019-03-01T11:20:46.392Z,0.50
2019-03-01T11:23:16.047Z,1.30
2019-03-01T11:25:45.480Z,0.30
2019-03-01T11:28:15.143Z,0.50
2019-03-01T11:30:44.347Z,0.40
2019-03-01T11:33:13.900Z,0.40
2019-03-01T11:35:43.026Z,0.30
2019-03-01T11:38:12.305Z,0.50
2019-03-01T11:40:41.553Z,0.40
2019-03-01T11:43:10.972Z,0.40
2019-03-01T11:45:40.375Z,0.50
2019-03-01T11:48:10.079Z,0.80
2019-03-01T11:50:39.315Z,0.30
2019-03-01T11:53:08.776Z,0.40
2019-03-01T11:55:38.101Z,0.60
2019-03-01T11:58:07.293Z,0.50
2019-03-01T12:00:36.684Z,2.12
2019-03-01T12:03:06.120Z,0.30
2019-03-01T12:05:35.250Z,0.45
2019-03-01T12:08:04.757Z,0.72
2019-03-01T12:10:34.577Z,2.05
2019-03-01T12:13:03.999Z,0.70
2019-03-01T12:15:33.405Z,0.50
2019-03-01T12:18:02.985Z,0.75
2019-03-01T12:20:32.454Z,0.50
2019-03-01T12:23:01.990Z,0.75
2019-03-01T12:25:31.164Z,1.20
2019-03-01T12:28:00.592Z,0.75
2019-03-01T12:30:30.095Z,1.62
2019-03-01T12:32:59.537Z,0.62
2019-03-01T12:35:29.131Z,0.55
2019-03-01T12:37:58.830Z,1.35
2019-03-01T12:40:28.030Z,0.82
2019-03-01T12:42:57.479Z,3.80
2019-03-01T12:45:26.873Z,1.05
2019-03-01T12:47:56.572Z,1.37
2019-03-01T12:50:26.275Z,1.52
2019-03-01T12:52:55.444Z,1.05
2019-03-01T12:55:24.694Z,3.25
2019-03-01T12:57:54.143Z,1.20
2019-03-01T13:00:25.623Z,0.70
2019-03-01T13:02:55.063Z,0.90
2019-03-01T13:05:25.540Z,0.68
2019-03-01T13:07:55.887Z,0.88
2019-03-01T13:10:26.439Z,0.62
2019-03-01T13:12:58.756Z,8.33
2019-03-01T13:15:26.545Z,7.03
2019-03-01T13:17:56.520Z,1.00
2019-03-01T13:20:25.652Z,2.15
2019-03-01T13:22:55.091Z,0.88
2019-03-01T13:25:25.911Z,0.80
2019-03-01T13:27:55.691Z,1.87
2019-03-01T13:30:24.928Z,4.17
2019-03-01T13:32:55.156Z,1.17
2019-03-01T13:35:26.108Z,4.10
2019-03-01T13:37:56.786Z,10.08
2019-03-01T13:40:26.363Z,3.80
2019-03-01T13:42:55.679Z,4.47
2019-03-01T13:45:25.141Z,2.90
2019-03-01T13:47:54.973Z,1.22
2019-03-01T13:50:24.115Z,4.30
2019-03-01T13:52:53.577Z,2.60
2019-03-01T13:55:23.845Z,1.27
2019-03-01T13:57:53.175Z,3.08
2019-03-01T14:00:22.325Z,1.30
2019-03-01T14:02:51.934Z,4.15
2019-03-01T14:05:22.186Z,1.25
2019-03-01T14:07:56.595Z,3.12
2019-03-01T14:10:22.561Z,2.77
2019-03-01T14:12:52.509Z,2.65
2019-03-01T14:15:21.900Z,4.30
2019-03-01T14:17:51.368Z,2.17
2019-03-01T14:20:21.247Z,1.60
2019-03-01T14:22:51.076Z,2.87
2019-03-01T14:25:20.203Z,3.37
2019-03-01T14:27:49.684Z,3.90
2019-03-01T14:30:20.007Z,2.60
2019-03-01T14:32:49.632Z,4.33
2019-03-01T14:35:20.516Z,3.62
2019-03-01T14:37:53.961Z,8.78
2019-03-01T14:40:22.695Z,2.05
2019-03-01T14:42:52.788Z,6.12
2019-03-01T14:45:25.342Z,9.60
2019-03-01T14:47:54.588Z,6.62
2019-03-01T14:50:24.351Z,10.20
2019-03-01T14:52:58.495Z,5.53
2019-03-01T14:55:31.161Z,6.90
2019-03-01T14:58:07.276Z,7.15
2019-03-01T15:00:40.352Z,4.50
2019-03-01T15:03:32.955Z,6.85
2019-03-01T15:06:03.222Z,3.62
2019-03-01T15:08:33.099Z,4.97
2019-03-01T15:11:07.990Z,4.80
2019-03-01T15:13:36.402Z,7.92
2019-03-01T15:16:06.100Z,11.15
2019-03-01T15:18:35.765Z,5.85
2019-03-01T15:21:05.948Z,18.40
2019-03-01T15:23:35.776Z,6.92
2019-03-01T15:26:05.207Z,6.25
2019-03-01T15:28:45.933Z,4.42
2019-03-01T15:31:15.175Z,4.03
2019-03-01T15:33:47.136Z,11.28
2019-03-01T15:36:18.003Z,2.95
2019-03-01T15:38:46.663Z,12.53
2019-03-01T15:41:16.071Z,8.55
2019-03-01T15:43:45.324Z,4.10
2019-03-01T15:46:15.434Z,4.10
2019-03-01T15:48:44.772Z,8.45
2019-03-01T15:51:14.377Z,4.25
2019-03-01T15:53:43.699Z,6.37
2019-03-01T15:56:13.856Z,6.60
2019-03-01T15:58:43.778Z,10.23
2019-03-01T16:01:12.906Z,6.15
2019-03-01T16:03:42.607Z,5.92
2019-03-01T16:06:17.495Z,5.37
2019-03-01T16:08:43.945Z,7.95
2019-03-01T16:11:13.924Z,10.80
2019-03-01T16:13:47.902Z,4.30
2019-03-01T16:16:14.614Z,6.87
2019-03-01T16:18:43.774Z,6.78
2019-03-01T16:21:13.135Z,6.25
2019-03-01T16:23:42.802Z,11.22
2019-03-01T16:26:12.431Z,5.70
2019-03-01T16:28:42.096Z,6.17
2019-03-01T16:31:11.427Z,3.17
2019-03-01T16:33:40.559Z,7.97
2019-03-01T16:36:16.344Z,7.17
2019-03-01T16:38:48.679Z,12.45
2019-03-01T16:41:16.720Z,8.78
2019-03-01T16:43:46.115Z,6.85
2019-03-01T16:46:15.432Z,7.85
2019-03-01T16:48:45.169Z,9.68
2019-03-01T16:51:15.560Z,8.50
2019-03-01T16:53:46.408Z,7.65
2019-03-01T16:56:16.000Z,15.98
2019-03-01T16:58:45.135Z,5.50
2019-03-01T17:01:14.411Z,16.00
2019-03-01T17:03:43.541Z,4.65
2019-03-01T17:06:13.764Z,11.50
2019-03-01T17:08:44.651Z,9.50
2019-03-01T17:11:13.906Z,6.97
2019-03-01T17:13:43.102Z,12.68
2019-03-01T17:16:12.651Z,9.55
2019-03-01T17:18:44.719Z,11.95
2019-03-01T17:21:15.834Z,9.85
2019-03-01T17:23:44.198Z,13.60
2019-03-01T17:26:13.470Z,25.05
2019-03-01T17:28:42.947Z,8.75
2019-03-01T17:31:13.244Z,12.15
2019-03-01T17:33:45.144Z,5.00
2019-03-01T17:36:21.100Z,8.13
2019-03-01T17:38:50.228Z,9.28
2019-03-01T17:41:20.030Z,5.45
2019-03-01T17:43:49.757Z,3.37
2019-03-01T17:46:19.284Z,6.10
2019-03-01T17:48:48.741Z,4.15
2019-03-01T17:51:21.028Z,10.10
2019-03-01T17:53:49.881Z,5.28
2019-03-01T17:56:21.925Z,11.80
2019-03-01T17:58:50.532Z,5.15
2019-03-01T18:01:20.080Z,13.70
2019-03-01T18:03:49.515Z,10.20
2019-03-01T18:06:18.787Z,12.28
2019-03-01T18:08:48.469Z,12.45
2019-03-01T18:11:18.092Z,9.65
2019-03-01T18:13:47.512Z,14.28
2019-03-01T18:16:17.581Z,11.85
2019-03-01T18:18:49.499Z,10.43
2019-03-01T18:21:17.992Z,9.75
2019-03-01T18:23:47.126Z,8.65
2019-03-01T18:26:16.655Z,5.00
2019-03-01T18:28:45.812Z,12.00
2019-03-01T18:31:15.416Z,11.05
2019-03-01T18:33:44.629Z,6.65
2019-03-01T18:36:14.248Z,6.87
2019-03-01T18:38:43.667Z,4.20
2019-03-01T18:41:12.951Z,8.13
2019-03-01T18:43:42.101Z,8.03
2019-03-01T18:46:14.575Z,15.20
2019-03-01T18:48:43.925Z,13.28
2019-03-01T18:51:13.984Z,10.10
2019-03-01T18:53:43.128Z,7.22
2019-03-01T18:56:12.675Z,3.80
2019-03-01T18:58:42.101Z,6.65
2019-03-01T19:01:12.475Z,4.10
2019-03-01T19:03:41.899Z,3.45
2019-03-01T19:06:12.819Z,11.33
2019-03-01T19:08:42.310Z,6.72
2019-03-01T19:11:11.920Z,14.68
2019-03-01T19:13:41.136Z,10.58
2019-03-01T19:16:10.667Z,23.02
2019-03-01T19:18:42.143Z,32.35
2019-03-01T19:21:13.960Z,14.78
2019-03-01T19:23:43.081Z,16.30
2019-03-01T19:26:12.490Z,23.05
2019-03-01T19:28:42.103Z,15.78
2019-03-01T19:31:11.236Z,13.38
2019-03-01T19:33:41.629Z,20.45
2019-03-01T19:36:10.963Z,14.65
2019-03-01T19:38:40.231Z,36.13
2019-03-01T19:41:09.717Z,17.17
2019-03-01T19:43:41.613Z,41.88
2019-03-01T19:46:12.640Z,17.02
2019-03-01T19:48:41.610Z,14.53
2019-03-01T19:51:11.556Z,17.50
2019-03-01T19:53:40.875Z,20.52
2019-03-01T19:56:10.279Z,22.87
2019-03-01T19:58:39.811Z,36.38
2019-03-01T20:01:08.947Z,27.02
2019-03-01T20:03:38.772Z,27.70
2019-03-01T20:06:08.850Z,18.12
2019-03-01T20:08:38.532Z,25.37
2019-03-01T20:11:08.895Z,21.80
2019-03-01T20:13:38.814Z,22.82
2019-03-01T20:16:08.032Z,29.92
2019-03-01T20:18:41.739Z,18.17
2019-03-01T20:21:10.554Z,17.90
2019-03-01T20:23:39.871Z,15.68
2019-03-01T20:26:09.364Z,38.15
2019-03-01T20:28:39.168Z,16.37
2019-03-01T20:31:08.322Z,16.23
2019-03-01T20:33:37.648Z,36.28
2019-03-01T20:36:07.100Z,20.05
2019-03-01T20:38:39.645Z,21.70
2019-03-01T20:41:07.738Z,20.62
2019-03-01T20:43:37.958Z,19.77
2019-03-01T20:46:08.389Z,12.98
2019-03-01T20:48:37.934Z,44.75
2019-03-01T20:51:07.165Z,16.12
2019-03-01T20:53:38.963Z,18.25
2019-03-01T20:56:09.984Z,21.50
2019-03-01T20:58:39.636Z,17.67
2019-03-01T21:01:09.683Z,22.35
2019-03-01T21:03:39.216Z,10.45
2019-03-01T21:06:08.424Z,26.07
2019-03-01T21:08:39.669Z,20.20
2019-03-01T21:11:10.238Z,28.75
2019-03-01T21:13:40.724Z,18.87
2019-03-01T21:16:10.379Z,36.90
2019-03-01T21:18:40.011Z,23.07
2019-03-01T21:21:09.429Z,15.13
2019-03-01T21:23:39.051Z,43.95
2019-03-01T21:26:11.984Z,19.98
2019-03-01T21:28:41.828Z,22.10
2019-03-01T21:31:12.513Z,28.20
2019-03-01T21:33:42.181Z,38.17
2019-03-01T21:36:11.320Z,20.55
2019-03-01T21:38:41.124Z,32.20
2019-03-01T21:41:11.118Z,17.30
2019-03-01T21:43:42.929Z,11.38
2019-03-01T21:46:12.331Z,18.50
2019-03-01T21:48:41.852Z,25.60
2019-03-01T21:51:11.295Z,18.32
2019-03-01T21:53:40.897Z,21.48
2019-03-01T21:56:14.078Z,13.65
2019-03-01T21:58:43.719Z,17.73
2019-03-01T22:01:12.960Z,10.82
2019-03-01T22:03:43.360Z,18.65
2019-03-01T22:06:12.568Z,14.50
2019-03-01T22:08:48.692Z,16.27
2019-03-01T22:11:18.064Z,28.07
2019-03-01T22:13:48.440Z,17.75
2019-03-01T22:16:22.935Z,17.45
2019-03-01T22:18:52.229Z,23.25
2019-03-01T22:21:22.864Z,23.92
2019-03-01T22:23:52.887Z,25.00
2019-03-01T22:26:22.381Z,31.57
2019-03-01T22:28:51.675Z,19.73
2019-03-01T22:31:20.969Z,15.28
2019-03-01T22:33:52.630Z,13.15
2019-03-01T22:36:21.664Z,25.72
2019-03-01T22:38:51.128Z,20.23
2019-03-01T22:41:20.951Z,27.20
2019-03-01T22:43:50.139Z,21.68
2019-03-01T22:46:21.073Z,19.77
2019-03-01T22:48:56.163Z,24.10
2019-03-01T22:51:29.492Z,25.62
2019-03-01T22:53:59.263Z,37.45
2019-03-01T22:56:28.480Z,19.40
2019-03-01T22:58:57.668Z,24.35
2019-03-01T23:01:55.793Z,14.20
2019-03-01T23:04:26.587Z,11.68
2019-03-01T23:06:56.600Z,17.65
2019-03-01T23:09:25.951Z,21.15
2019-03-01T23:11:55.730Z,22.32
2019-03-01T23:14:27.373Z,17.07
2019-03-01T23:16:56.167Z,27.42
2019-03-01T23:19:25.353Z,24.50
2019-03-01T23:21:54.519Z,29.75
2019-03-01T23:24:23.984Z,17.92
2019-03-01T23:26:53.665Z,32.33
2019-03-01T23:29:24.385Z,10.05
2019-03-01T23:31:54.179Z,20.50
2019-03-01T23:34:23.351Z,27.95
2019-03-01T23:36:52.514Z,26.77
2019-03-01T23:39:24.579Z,22.75
2019-03-01T23:41:53.231Z,23.07
2019-03-01T23:44:22.964Z,37.90
2019-03-01T23:46:52.371Z,18.60
2019-03-01T23:49:24.021Z,16.95
2019-03-01T23:51:52.790Z,15.28
2019-03-01T23:54:22.234Z,18.07
2019-03-01T23:56:51.716Z,22.27
2019-03-01T23:59:23.747Z,20.32
